Des Moines, IA

2:19 AM CST on February 12, 2016 (GMT -0600)
Witmer Park | | Change Station
CLOSE
Current Station
Personal Weather Station
Location: Des Moines, IA
Elevation: 892 ft
Nearby Weather Stations

Elev 892 ft 41.61 °N, 93.66 °W | Updated 10 seconds ago

Overcast
Overcast
19.2 °F
Feels Like 19 °F
N
0.0
Wind Variable Wind from NW
Gusts 0.0 mph

Today
High -- | Low -- °F
--% Chance of Precip.
Yesterday
High -- | Low -- °F
Precip. -- in
Pressure 30.27 in
Visibility 9.0 miles
Clouds Overcast 2900 ft
Windchill 19 °F
Dew Point 16 °F
Humidity 88%
Rainfall 0.00 in
Snow Depth Not available.
7:14 AM 5:43 PM
Waxing Crescent, 18% visible
METAR KDSM 120754Z 26003KT 9SM -SN OVC029 M07/M09 A3022 RMK AO2 SNB45 SLP250 P0000 T10721094
Pressure 30.27 in
Visibility 9.0 miles
Clouds Overcast 2900 ft
Windchill 19 °F
Dew Point 16 °F
Humidity 88%
Rainfall 0.00 in
Snow Depth Not available.
7:14 AM 5:43 PM
Waxing Crescent, 18% visible
METAR KDSM 120754Z 26003KT 9SM -SN OVC029 M07/M09 A3022 RMK AO2 SNB45 SLP250 P0000 T10721094

10-Day Weather Forecast

Almanac

Astronomy

Feb. 12, 2016 Rise Set
Actual Time
Civil Twilight
Nautical Twilight
Astronomical Twilight
Moon
Length of Visible Light
Length of Day
Tomorrow will be .
, % of the Moon is Illuminated

Today's Extremes

State Highs State Lows

Community

WunderPhotos

Upload Photos

1,892,278 photos uploaded!

WunderBlog® & News

Nearby

Air Quality

  Air Quality AQ Index Pollutant
Not available.

Snow Depth

Station Depth Elevation

Earthquake Activity

City Distance Mag. Time & Date
Minimum magnitude displayed is 2.5.

Coastal Water Temperatures

Place Temperature

Stations

Nearby Weather Stations

Station Location Temp. Windchill Dew Point Humidity Wind Precip. Elev Updated Type
                   

Watches & Warnings

There are currently no watches in effect.